MO54 weather

Dudley Airport
Dudley, Missouri, United States

Public forecast

Using degrees Fahrenheit for public forecast. Weather courtesy of forecast.io.

Closest aviation weather report (METAR) to Dudley Airport

Closest report is Poplar Bluff Municipal Airport, 11.4 nm (21.0 km) W. Retrieved 2019/11/15 20:53 UTC (1 hour ago):

KPOF 152053Z AUTO 02005KT 10SM CLR 11/M03 A3034 RMK AO2 SLP278 T01061033 56016

Closest aviation forecast (TAF) to Dudley Airport

Closest forecast is Cape Girardeau Regional Airport, 36.4 nm (67.4 km) NE. Retrieved 2019/11/15 18:22 UTC (4 hours ago):

TAF KCGI 151720Z 1518/1618 01006KT P6SM SKC FM160000 02003KT P6SM SCT250 FM160900 00000KT 3SM BR FEW250 FM161500 04005KT P6SM FEW015